Time;durP1;ratioP1;P1;durP2;ratioP2;P2;SDS_P1;SDS_P2;PMS_P1;PMS_P2;Temp;Humidity;BMP_temperature;BMP_pressure;BME280_temperature;BME280_humidity;BME280_pressure;Samples;Min_cycle;Max_cycle;Signal;HPM_P1;HPM_P2
2024/01/23 00:01:20;;;;;;;10.50;6.25;;;;;;;4.96;76.60;102981.91;5047239;28;20025;-86
2024/01/23 00:03:58;;;;;;;;;;;;;;;5.15;75.85;103003.94;5033238;28;20032;-86
2024/01/23 00:06:24;;;;;;;9.30;5.80;;;;;;;5.15;75.95;103003.94;5071115;28;19957;-86
2024/01/23 00:08:52;;;;;;;9.63;5.53;;;;;;;4.82;75.95;102936.34;5036321;28;20036;-85
2024/01/23 00:11:17;;;;;;;10.63;6.10;;;;;;;5.04;75.93;102974.25;5061184;28;20520;-85
2024/01/23 00:13:45;;;;;;;9.57;6.07;;;;;;;4.60;75.70;102894.19;5036539;28;20111;-85
2024/01/23 00:16:11;;;;;;;11.18;6.35;;;;;;;4.89;75.91;102937.19;5053653;28;20028;-85
2024/01/23 00:18:38;;;;;;;9.93;5.80;;;;;;;4.88;76.45;102942.19;5052536;28;20059;-85
2024/01/23 00:21:04;;;;;;;;;;;;;;;5.18;75.76;102986.13;5036454;28;20036;-86
2024/01/23 00:23:30;;;;;;;10.47;6.00;;;;;;;5.03;76.09;102967.22;5070277;28;19925;-86
2024/01/23 00:25:55;;;;;;;9.55;5.45;;;;;;;4.82;75.72;102932.06;5071156;28;20283;-86
2024/01/23 00:28:21;;;;;;;8.85;5.30;;;;;;;5.09;75.88;102960.13;5071312;28;20035;-87
2024/01/23 00:30:47;;;;;;;8.80;5.60;;;;;;;5.01;75.38;102947.97;5049978;28;20024;-86
2024/01/23 00:33:12;;;;;;;10.27;5.75;;;;;;;4.89;75.59;102926.84;5049772;28;20024;-85
2024/01/23 00:35:38;;;;;;;10.15;6.03;;;;;;;5.02;75.51;102952.44;5029934;28;20516;-85
2024/01/23 00:38:04;;;;;;;8.60;5.20;;;;;;;5.06;75.56;102958.88;5050788;28;20043;-86
2024/01/23 00:40:29;;;;;;;10.60;6.13;;;;;;;4.87;75.83;102932.59;5053116;28;20480;-83
2024/01/23 00:42:55;;;;;;;10.93;6.47;;;;;;;4.83;76.10;102912.31;5045448;28;20080;-87
2024/01/23 00:45:21;;;;;;;9.80;5.72;;;;;;;4.99;76.09;102940.81;5028353;28;20033;-87
2024/01/23 00:47:47;;;;;;;10.35;5.85;;;;;;;4.78;75.93;102893.66;5022332;28;20491;-86
2024/01/23 00:50:13;;;;;;;9.32;5.88;;;;;;;5.02;75.74;102931.72;5028667;28;20029;-86
2024/01/23 00:52:38;;;;;;;10.45;6.00;;;;;;;4.95;75.83;102920.50;5026278;28;20043;-85
2024/01/23 00:55:04;;;;;;;10.57;6.10;;;;;;;5.08;75.51;102937.59;5027230;28;20116;-85
2024/01/23 00:57:36;;;;;;;9.25;5.35;;;;;;;4.88;75.54;102898.19;5028526;28;20098;-85
2024/01/23 01:00:11;;;;;;;9.70;6.03;;;;;;;4.73;75.47;102870.59;5012411;28;20095;-84
2024/01/23 01:02:46;;;;;;;9.63;5.82;;;;;;;5.14;76.30;102924.38;5012229;28;20095;-85
2024/01/23 01:05:34;;;;;;;10.27;5.60;;;;;;;5.10;76.24;102938.66;5028769;28;20029;-85
2024/01/23 01:08:08;;;;;;;10.25;6.22;;;;;;;5.13;75.73;102924.22;5024536;28;20363;-85
2024/01/23 01:10:34;;;;;;;8.77;5.50;;;;;;;4.59;75.95;102830.25;4993008;28;20064;-86
2024/01/23 01:13:23;;;;;;;10.00;6.10;;;;;;;5.01;76.02;102905.66;5026986;28;20056;-85
2024/01/23 01:16:36;;;;;;;8.57;5.13;;;;;;;4.78;75.82;102857.41;5018211;28;20743;-86
2024/01/23 01:22:35;;;;;;;10.50;6.00;;;;;;;5.09;76.33;102915.19;5031135;28;20112;-86
2024/01/23 01:25:03;;;;;;;8.80;5.45;;;;;;;5.10;75.91;102912.78;5024888;28;20410;-85
2024/01/23 01:27:28;;;;;;;9.73;5.45;;;;;;;5.00;75.60;102891.78;5034375;28;20040;-86
2024/01/23 01:29:54;;;;;;;8.23;5.38;;;;;;;5.06;75.12;102896.72;5027258;28;20021;-85
2024/01/23 01:32:29;;;;;;;8.23;5.32;;;;;;;5.05;75.38;102890.59;5025022;28;20030;-86
2024/01/23 01:34:54;;;;;;;8.38;5.55;;;;;;;4.58;75.70;102815.47;5029661;28;20486;-88
2024/01/23 01:37:20;;;;;;;11.00;5.68;;;;;;;5.01;75.30;102891.03;5008557;28;20026;-85
2024/01/23 01:39:46;;;;;;;9.48;5.93;;;;;;;4.95;75.57;102871.31;5027420;28;20038;-86
2024/01/23 01:42:11;;;;;;;9.65;5.55;;;;;;;4.61;75.62;102819.31;5027463;28;20029;-85
2024/01/23 01:44:37;;;;;;;8.98;5.38;;;;;;;4.49;76.03;102787.84;5038579;28;20064;-86
2024/01/23 01:47:03;;;;;;;9.27;5.47;;;;;;;4.80;75.64;102832.59;5047899;28;20111;-86
2024/01/23 01:49:29;;;;;;;9.25;5.15;;;;;;;4.94;75.44;102856.53;5049126;28;20512;-85
2024/01/23 01:51:55;;;;;;;8.57;5.38;;;;;;;5.00;75.65;102868.47;5028006;28;20486;-85
2024/01/23 01:54:21;;;;;;;;;;;;;;;5.07;75.85;102865.81;5043467;28;20048;-86
2024/01/23 01:56:47;;;;;;;8.50;5.20;;;;;;;4.88;75.60;102831.78;5045408;28;19913;-85
2024/01/23 01:59:12;;;;;;;9.40;5.70;;;;;;;4.90;75.83;102832.88;5048659;28;20025;-87
2024/01/23 02:01:39;;;;;;;8.85;5.28;;;;;;;4.71;75.63;102794.47;5046877;28;20494;-86
2024/01/23 02:04:04;;;;;;;8.23;5.20;;;;;;;5.01;76.18;102856.44;5033604;28;20040;-86
2024/01/23 02:06:35;;;;;;;9.18;5.20;;;;;;;4.68;75.72;102779.53;5038666;28;20119;-86
2024/01/23 02:09:39;;;;;;;9.55;5.18;;;;;;;4.85;75.84;102810.75;5047877;28;20028;-86
2024/01/23 02:12:46;;;;;;;7.68;4.88;;;;;;;5.01;75.77;102835.72;5042462;28;20045;-86
2024/01/23 02:15:11;;;;;;;9.10;5.22;;;;;;;4.86;75.99;102812.56;5031745;28;20025;-88
2024/01/23 02:18:34;;;;;;;8.07;5.03;;;;;;;5.03;75.94;102840.31;5048504;28;20024;-86
2024/01/23 02:21:30;;;;;;;8.30;5.30;;;;;;;5.05;75.69;102838.81;5047623;28;20065;-85
2024/01/23 02:23:59;;;;;;;8.45;4.95;;;;;;;4.57;75.92;102757.66;5029782;28;20118;-85
2024/01/23 02:26:25;;;;;;;8.25;5.05;;;;;;;4.89;75.50;102812.94;5026251;28;20175;-86
2024/01/23 02:28:52;;;;;;;9.02;5.75;;;;;;;4.67;75.46;102773.41;5049827;28;20104;-86
2024/01/23 02:31:17;;;;;;;8.73;5.60;;;;;;;4.90;75.71;102817.34;5046633;28;20029;-88
2024/01/23 02:33:43;;;;;;;7.97;5.03;;;;;;;5.00;75.48;102833.91;5048798;28;20032;-86
2024/01/23 02:36:09;;;;;;;9.18;4.95;;;;;;;4.93;75.35;102814.16;5035283;28;20236;-85
2024/01/23 02:38:34;;;;;;;8.57;5.25;;;;;;;4.55;75.67;102751.38;5051949;28;20025;-86
2024/01/23 02:41:00;;;;;;;8.07;5.25;;;;;;;4.47;75.85;102731.50;5033551;28;20041;-85
2024/01/23 02:43:26;;;;;;;8.63;5.20;;;;;;;4.45;75.21;102720.06;5058046;28;20516;-85
2024/01/23 02:45:53;;;;;;;8.38;5.18;;;;;;;4.81;75.93;102789.56;5059071;28;20445;-88
2024/01/23 02:48:24;;;;;;;8.85;5.10;;;;;;;4.97;76.03;102818.94;5071178;28;20028;-86
2024/01/23 02:50:50;;;;;;;9.75;5.40;;;;;;;4.74;75.99;102761.13;5069748;28;20028;-85
2024/01/23 02:53:19;;;;;;;8.02;5.10;;;;;;;4.44;75.70;102706.19;5057004;28;20041;-87
2024/01/23 02:55:45;;;;;;;7.70;5.03;;;;;;;4.51;75.93;102727.56;5054943;28;20032;-86
2024/01/23 02:58:11;;;;;;;8.10;4.97;;;;;;;4.80;75.88;102773.06;5062160;28;20029;-87
2024/01/23 03:00:39;;;;;;;8.77;5.20;;;;;;;4.73;75.60;102760.22;5050927;28;20044;-87
2024/01/23 03:03:08;;;;;;;7.32;4.88;;;;;;;4.95;75.51;102783.28;5043291;28;20025;-87
2024/01/23 03:05:34;;;;;;;8.93;5.10;;;;;;;4.75;75.67;102753.56;5057523;28;20029;-86
2024/01/23 03:08:10;;;;;;;9.82;5.13;;;;;;;4.51;75.82;102702.63;5062083;28;20460;-87
2024/01/23 03:10:39;;;;;;;8.38;5.35;;;;;;;4.58;75.52;102719.75;5066739;28;20038;-87
2024/01/23 03:13:04;;;;;;;8.55;5.20;;;;;;;4.52;75.78;102709.63;5053984;28;20159;-86
2024/01/23 03:15:30;;;;;;;9.13;5.28;;;;;;;4.75;75.71;102763.91;5037493;28;20107;-86
2024/01/23 03:17:58;;;;;;;8.40;5.20;;;;;;;4.92;76.00;102798.50;5071943;28;20040;-85
2024/01/23 03:20:29;;;;;;;8.60;5.30;;;;;;;4.79;75.82;102773.84;5052806;28;20039;-88
2024/01/23 03:22:55;;;;;;;9.77;5.72;;;;;;;4.82;76.11;102774.16;5055541;28;20073;-86
2024/01/23 03:25:21;;;;;;;8.95;5.40;;;;;;;4.80;75.64;102775.66;5036949;28;20107;-87
2024/01/23 03:27:57;;;;;;;10.15;5.70;;;;;;;4.33;75.71;102690.25;5034534;28;20033;-86
2024/01/23 03:30:30;;;;;;;8.90;5.20;;;;;;;4.51;76.16;102723.34;5052577;28;20627;-86
2024/01/23 03:32:56;;;;;;;9.43;5.60;;;;;;;4.63;75.92;102740.16;5054341;28;20028;-86
2024/01/23 03:35:22;;;;;;;;;;;;;;;4.92;75.69;102790.72;5036881;28;20095;-86
2024/01/23 03:37:48;;;;;;;8.02;5.32;;;;;;;4.75;75.99;102763.00;5054502;28;19916;-86
2024/01/23 03:40:18;;;;;;;8.40;5.45;;;;;;;4.89;75.66;102780.97;5037705;28;20435;-85
2024/01/23 03:42:43;;;;;;;8.43;5.50;;;;;;;4.90;75.56;102770.75;5057677;28;20036;-86
2024/01/23 03:45:09;;;;;;;7.68;5.15;;;;;;;4.69;75.38;102732.16;5046365;28;20154;-86
2024/01/23 03:47:35;;;;;;;9.25;5.22;;;;;;;4.58;76.28;102720.66;5036522;28;20482;-86
2024/01/23 03:50:02;;;;;;;8.80;5.55;;;;;;;4.61;76.13;102722.66;5049431;28;20036;-88
2024/01/23 03:52:30;;;;;;;9.30;5.22;;;;;;;4.27;75.78;102657.78;5033369;28;20036;-85
2024/01/23 03:54:56;;;;;;;9.32;5.20;;;;;;;4.37;75.53;102676.91;5053836;28;20029;-86
2024/01/23 03:57:22;;;;;;;9.00;5.35;;;;;;;4.74;75.53;102746.56;5053792;28;20724;-86
2024/01/23 03:59:49;;;;;;;9.05;5.40;;;;;;;4.75;76.01;102756.13;5053094;28;20035;-85
2024/01/23 04:02:15;;;;;;;8.50;5.25;;;;;;;4.75;76.33;102752.63;5050669;28;20032;-87
2024/01/23 04:04:42;;;;;;;9.18;5.22;;;;;;;4.63;75.92;102723.75;5057734;28;20048;-85
2024/01/23 04:07:08;;;;;;;9.15;5.40;;;;;;;4.75;75.74;102729.34;5036440;28;20036;-88
2024/01/23 04:09:34;;;;;;;7.85;5.32;;;;;;;4.74;75.86;102722.31;5052365;28;20032;-87
2024/01/23 04:11:59;;;;;;;7.53;5.05;;;;;;;4.78;75.56;102748.69;5067954;28;20122;-87
2024/01/23 04:14:25;;;;;;;7.97;5.10;;;;;;;4.80;75.58;102735.94;5053461;28;20021;-87
2024/01/23 04:16:51;;;;;;;9.27;5.35;;;;;;;4.63;75.83;102708.22;5048131;28;20028;-87
2024/01/23 04:19:18;;;;;;;8.38;5.18;;;;;;;4.68;75.82;102718.31;5060351;28;20036;-87
2024/01/23 04:21:44;;;;;;;;;;;;;;;4.80;76.15;102743.69;5043332;28;20025;-87
2024/01/23 04:24:09;;;;;;;8.70;4.82;;;;;;;4.54;75.45;102691.69;5069585;28;20365;-86
2024/01/23 04:26:37;;;;;;;8.38;5.45;;;;;;;4.53;75.47;102688.19;5048624;28;20032;-86
2024/01/23 04:29:03;;;;;;;7.00;4.78;;;;;;;4.59;75.68;102699.22;5034067;28;20537;-86
2024/01/23 04:32:18;;;;;;;8.38;5.30;;;;;;;4.47;75.95;102683.25;5050300;28;20066;-87
2024/01/23 04:34:54;;;;;;;8.07;5.40;;;;;;;4.79;75.79;102729.84;5052641;28;20037;-87
2024/01/23 04:37:22;;;;;;;9.40;5.20;;;;;;;4.84;75.83;102745.88;5033440;28;20036;-86
2024/01/23 04:39:48;;;;;;;8.65;5.50;;;;;;;4.43;75.43;102657.81;5066546;28;20686;-87
2024/01/23 04:42:21;;;;;;;7.35;4.90;;;;;;;4.46;75.61;102659.81;5045876;28;20028;-88
2024/01/23 04:44:47;;;;;;;8.57;5.18;;;;;;;4.22;75.58;102630.50;5047609;28;20701;-86
2024/01/23 04:47:19;;;;;;;8.40;4.95;;;;;;;4.59;75.36;102701.81;5042413;28;20033;-87
2024/01/23 04:49:45;;;;;;;8.55;5.30;;;;;;;4.75;74.91;102713.81;5045558;28;20036;-86
2024/01/23 04:52:11;;;;;;;7.03;4.43;;;;;;;4.37;75.29;102661.41;5037602;28;20384;-86
2024/01/23 04:54:36;;;;;;;8.23;5.20;;;;;;;4.34;75.18;102638.72;5035467;28;20048;-86
2024/01/23 04:57:02;;;;;;;8.73;5.22;;;;;;;4.43;75.46;102649.13;5031719;28;20402;-87
2024/01/23 04:59:28;;;;;;;8.45;5.03;;;;;;;4.75;75.48;102711.22;5037588;28;20131;-85
2024/01/23 05:01:54;;;;;;;7.63;4.90;;;;;;;4.65;75.51;102692.09;5035612;28;20506;-86
2024/01/23 05:04:19;;;;;;;8.35;5.00;;;;;;;4.33;75.45;102628.19;5021354;28;20036;-86
2024/01/23 05:06:46;;;;;;;7.38;4.93;;;;;;;4.60;75.82;102688.09;5031137;28;20037;-86
2024/01/23 05:09:16;;;;;;;9.02;5.07;;;;;;;4.58;75.90;102679.25;5038816;28;20089;-86
2024/01/23 05:11:42;;;;;;;8.45;5.07;;;;;;;4.79;75.58;102714.31;5032865;28;20029;-87
2024/01/23 05:14:07;;;;;;;9.23;5.10;;;;;;;4.52;75.51;102660.47;5047704;28;20063;-86
2024/01/23 05:16:34;;;;;;;9.68;4.88;;;;;;;4.64;75.52;102679.00;5035684;28;20041;-85
2024/01/23 05:18:59;;;;;;;8.15;5.40;;;;;;;4.64;75.36;102689.38;5041964;28;20041;-85
2024/01/23 05:21:25;;;;;;;9.15;5.30;;;;;;;4.61;75.68;102679.56;5041749;28;20029;-86
2024/01/23 05:23:51;;;;;;;8.00;5.35;;;;;;;4.74;75.54;102704.19;5042913;28;20036;-86
2024/01/23 05:26:18;;;;;;;9.90;5.30;;;;;;;4.69;75.81;102702.03;5043204;28;20417;-87
2024/01/23 05:28:43;;;;;;;8.93;5.18;;;;;;;4.37;75.98;102636.44;5036436;28;20489;-86
2024/01/23 05:31:09;;;;;;;8.30;4.75;;;;;;;4.17;76.05;102599.72;5047738;28;20017;-86
2024/01/23 05:33:35;;;;;;;7.65;4.85;;;;;;;4.52;75.87;102667.31;5038137;28;20025;-86
2024/01/23 05:36:01;;;;;;;8.27;5.35;;;;;;;4.70;75.51;102692.63;5039776;28;20032;-85
2024/01/23 05:38:28;;;;;;;7.90;4.85;;;;;;;4.59;76.16;102682.75;5031170;28;20079;-88
2024/01/23 05:40:55;;;;;;;7.97;4.72;;;;;;;4.53;75.88;102662.31;5048132;28;20037;-85
2024/01/23 05:43:22;;;;;;;7.97;4.85;;;;;;;4.43;75.33;102636.19;5033684;28;20499;-87
2024/01/23 05:45:49;;;;;;;8.55;5.40;;;;;;;4.73;75.80;102697.19;5007978;28;20525;-88
2024/01/23 05:48:15;;;;;;;9.05;5.28;;;;;;;4.75;75.89;102694.03;5007840;28;20029;-84
2024/01/23 05:50:57;;;;;;;7.80;4.70;;;;;;;4.24;75.77;102617.75;5021536;28;20408;-85
2024/01/23 05:53:23;;;;;;;8.07;5.07;;;;;;;4.15;75.32;102598.63;5023912;28;20120;-87
2024/01/23 05:56:10;;;;;;;8.13;4.90;;;;;;;4.15;75.53;102593.47;5010643;28;20637;-87
2024/01/23 05:58:35;;;;;;;;;;;;;;;4.70;75.32;102692.63;5026020;28;20855;-87
2024/01/23 06:01:01;;;;;;;7.60;4.90;;;;;;;4.54;75.91;102673.59;5015333;28;19924;-87
2024/01/23 06:03:29;;;;;;;9.13;4.78;;;;;;;4.60;76.18;102687.19;5009210;28;20036;-87
2024/01/23 06:05:54;;;;;;;7.30;4.68;;;;;;;4.64;76.24;102686.78;5014969;28;20045;-86
2024/01/23 06:08:20;;;;;;;7.47;4.88;;;;;;;4.41;75.89;102643.78;5015743;28;20036;-87
2024/01/23 06:10:47;;;;;;;8.25;5.28;;;;;;;4.26;75.42;102609.41;5026888;28;20025;-88
2024/01/23 06:13:13;;;;;;;7.13;4.88;;;;;;;3.87;75.72;102543.94;5010717;28;20061;-88
2024/01/23 06:15:39;;;;;;;7.28;4.70;;;;;;;4.48;75.20;102638.50;5023058;28;20588;-87
2024/01/23 06:18:07;;;;;;;8.52;5.20;;;;;;;4.23;75.22;102596.16;5007391;28;20116;-88
2024/01/23 06:20:33;;;;;;;8.63;5.20;;;;;;;4.32;75.68;102616.94;5005679;28;20036;-87
2024/01/23 06:22:59;;;;;;;7.28;4.78;;;;;;;4.41;75.42;102633.44;5028888;28;20033;-86
2024/01/23 06:25:24;;;;;;;8.20;5.10;;;;;;;4.29;75.28;102607.16;5023447;28;20064;-87
2024/01/23 06:27:50;;;;;;;8.02;4.82;;;;;;;4.67;75.17;102666.38;5025109;28;20034;-88
2024/01/23 06:30:16;;;;;;;7.40;4.53;;;;;;;4.48;75.62;102641.09;5023948;28;20116;-88
2024/01/23 06:32:42;;;;;;;7.15;4.63;;;;;;;4.53;75.56;102649.38;5014855;28;20033;-87
2024/01/23 06:35:09;;;;;;;7.22;5.07;;;;;;;4.72;74.99;102674.66;5024211;28;20042;-87
2024/01/23 06:37:34;;;;;;;7.97;5.05;;;;;;;4.34;75.23;102623.19;5016397;28;20384;-87
2024/01/23 06:40:01;;;;;;;8.27;5.03;;;;;;;4.73;75.60;102689.44;5025033;28;20500;-84
2024/01/23 06:42:27;;;;;;;7.20;4.80;;;;;;;4.49;75.36;102649.81;5023021;28;20052;-84
2024/01/23 06:44:52;;;;;;;8.55;5.40;;;;;;;4.40;74.98;102628.09;5064792;28;20048;-87
2024/01/23 06:47:18;;;;;;;9.23;5.18;;;;;;;4.57;75.10;102661.91;5057233;28;20033;-87
2024/01/23 06:49:44;;;;;;;8.07;4.82;;;;;;;4.72;75.17;102679.81;5068064;28;20119;-86
2024/01/23 06:52:10;;;;;;;8.18;4.85;;;;;;;4.69;75.50;102667.47;5049682;28;20143;-87
2024/01/23 06:54:36;;;;;;;8.30;5.10;;;;;;;4.31;75.34;102609.91;5028776;28;20029;-86
2024/01/23 06:57:02;;;;;;;7.75;5.10;;;;;;;4.44;75.59;102630.25;5046569;28;20025;-86
2024/01/23 06:59:27;;;;;;;8.68;5.40;;;;;;;4.74;75.60;102676.66;5067589;28;20374;-87
2024/01/23 07:01:53;;;;;;;8.57;5.05;;;;;;;4.61;75.21;102648.50;5033830;28;20075;-86
2024/01/23 07:04:19;;;;;;;8.13;4.68;;;;;;;4.10;75.01;102558.44;5048809;28;20029;-85
2024/01/23 07:06:44;;;;;;;8.30;4.90;;;;;;;4.34;75.20;102611.91;5052816;28;20124;-86
2024/01/23 07:09:13;;;;;;;7.82;4.95;;;;;;;3.73;75.17;102498.50;5050668;28;20098;-86
2024/01/23 07:11:42;;;;;;;7.88;4.72;;;;;;;4.63;75.63;102662.53;5044002;28;20442;-86
2024/01/23 07:14:08;;;;;;;8.85;5.00;;;;;;;4.15;74.85;102573.72;5071190;28;20501;-86
2024/01/23 07:16:40;;;;;;;7.75;5.18;;;;;;;4.19;75.29;102578.47;5054931;28;20070;-85
2024/01/23 07:19:06;;;;;;;7.85;5.10;;;;;;;4.08;75.55;102545.34;5054742;28;20100;-87
2024/01/23 07:21:31;;;;;;;8.18;5.07;;;;;;;4.76;74.95;102666.47;5045909;28;20135;-84
2024/01/23 07:24:00;;;;;;;8.02;4.80;;;;;;;3.93;75.71;102523.00;5066564;28;20044;-85
2024/01/23 07:26:26;;;;;;;8.70;4.90;;;;;;;4.53;75.37;102639.03;5036994;28;20500;-85
2024/01/23 07:29:02;;;;;;;7.50;4.57;;;;;;;4.57;75.00;102643.78;5072047;28;20039;-85
2024/01/23 07:31:31;;;;;;;8.18;4.97;;;;;;;4.32;75.47;102595.28;5072434;28;20032;-85
2024/01/23 07:33:57;;;;;;;8.25;5.43;;;;;;;4.51;75.21;102637.94;5054507;28;20485;-85
2024/01/23 07:36:26;;;;;;;7.97;5.20;;;;;;;4.28;75.48;102604.41;5054096;28;20135;-86
2024/01/23 07:38:52;;;;;;;7.30;4.85;;;;;;;4.65;75.31;102666.22;5030359;28;20037;-86
2024/01/23 07:41:19;;;;;;;7.90;5.10;;;;;;;4.41;75.12;102623.09;5034339;28;20063;-87
2024/01/23 07:43:49;;;;;;;7.85;4.80;;;;;;;4.38;75.34;102612.44;5043683;28;20049;-87
2024/01/23 07:46:16;;;;;;;8.85;5.15;;;;;;;4.68;75.57;102663.97;5014154;28;20119;-86
2024/01/23 07:48:42;;;;;;;8.25;5.00;;;;;;;4.49;75.11;102637.78;5030925;28;20041;-85
2024/01/23 07:51:08;;;;;;;8.38;5.32;;;;;;;4.55;75.36;102637.53;5030683;28;20048;-84
2024/01/23 07:53:43;;;;;;;8.82;5.35;;;;;;;3.91;75.06;102516.75;5030374;28;20091;-85
2024/01/23 07:56:10;;;;;;;8.32;5.10;;;;;;;4.08;76.06;102543.72;5028768;28;20116;-86
2024/01/23 07:58:35;;;;;;;8.32;5.05;;;;;;;4.47;75.40;102621.16;5030144;28;20428;-83
2024/01/23 08:01:01;;;;;;;8.55;5.32;;;;;;;4.22;75.35;102580.47;5029466;28;20017;-84
2024/01/23 08:03:27;;;;;;;7.43;5.10;;;;;;;4.10;75.58;102555.88;5029651;28;20090;-85
2024/01/23 08:05:52;;;;;;;8.43;5.00;;;;;;;4.49;75.22;102609.31;5029487;28;20082;-85
2024/01/23 08:08:19;;;;;;;9.18;5.25;;;;;;;4.51;75.77;102616.31;5013901;28;20480;-85
2024/01/23 08:10:46;;;;;;;7.97;4.97;;;;;;;4.64;74.79;102609.13;5031355;28;20052;-85
2024/01/23 08:13:12;;;;;;;8.82;5.35;;;;;;;4.49;75.29;102592.88;5021385;28;20030;-86
2024/01/23 08:15:38;;;;;;;8.18;5.00;;;;;;;4.64;74.84;102606.56;5022945;28;20495;-86
2024/01/23 08:18:04;;;;;;;7.35;4.50;;;;;;;4.34;75.16;102562.75;5023023;28;20043;-85
2024/01/23 08:20:32;;;;;;;7.90;5.03;;;;;;;4.69;75.55;102620.88;5029350;28;20025;-85
2024/01/23 08:23:12;;;;;;;9.35;5.60;;;;;;;4.27;75.73;102556.94;5029878;28;20095;-86
2024/01/23 08:25:38;;;;;;;7.57;4.80;;;;;;;4.03;75.59;102498.31;5013457;28;20486;-85
2024/01/23 08:28:04;;;;;;;8.43;5.07;;;;;;;4.28;75.35;102542.34;5028026;28;20713;-83
2024/01/23 08:30:30;;;;;;;7.55;4.85;;;;;;;4.29;75.55;102551.94;5028712;28;20051;-83
2024/01/23 08:32:56;;;;;;;7.97;5.07;;;;;;;4.58;75.64;102614.56;5028554;28;20025;-83
2024/01/23 08:35:22;;;;;;;8.90;4.75;;;;;;;4.60;75.63;102614.75;5019890;28;20494;-83
2024/01/23 08:37:47;;;;;;;8.00;5.07;;;;;;;3.81;75.74;102473.47;4995427;28;20112;-83
2024/01/23 08:40:15;;;;;;;8.15;4.78;;;;;;;4.08;75.97;102511.75;5029135;28;20041;-83
2024/01/23 08:42:41;;;;;;;7.13;4.60;;;;;;;4.21;75.49;102542.41;5029959;28;20026;-83
2024/01/23 08:45:08;;;;;;;7.65;4.65;;;;;;;4.24;75.48;102546.25;5029283;28;20071;-83
2024/01/23 08:47:34;;;;;;;6.78;4.60;;;;;;;4.14;75.87;102522.75;5024605;28;20030;-85
2024/01/23 08:49:59;;;;;;;8.25;4.72;;;;;;;4.28;75.92;102548.44;5029810;28;20091;-83
2024/01/23 08:52:25;;;;;;;6.47;4.40;;;;;;;4.49;75.54;102591.22;5030608;28;20032;-83
2024/01/23 08:54:54;;;;;;;8.07;4.97;;;;;;;4.01;75.70;102511.84;5028265;28;20034;-84
2024/01/23 08:57:22;;;;;;;7.43;4.45;;;;;;;3.76;75.28;102448.81;5030298;28;20033;-85
2024/01/23 08:59:48;;;;;;;8.13;4.95;;;;;;;3.77;75.49;102433.50;5029476;28;20032;-85
2024/01/23 09:02:14;;;;;;;7.43;4.72;;;;;;;4.52;75.29;102563.84;5012628;28;20029;-84
2024/01/23 09:04:40;;;;;;;8.05;5.45;;;;;;;4.23;75.15;102509.88;5013127;28;20037;-85
2024/01/23 09:07:06;;;;;;;6.72;4.70;;;;;;;4.53;74.82;102556.25;5029232;28;20026;-85
2024/01/23 09:09:32;;;;;;;8.93;4.80;;;;;;;4.22;75.65;102521.91;5029212;28;20079;-85
2024/01/23 09:11:57;;;;;;;6.95;4.60;;;;;;;4.27;75.17;102514.63;5028738;28;20481;-85
2024/01/23 09:14:28;;;;;;;7.55;4.68;;;;;;;4.46;75.42;102530.44;5020396;28;20090;-84
2024/01/23 09:17:05;;;;;;;8.00;5.00;;;;;;;4.44;75.21;102545.81;5025962;28;20033;-84
2024/01/23 09:19:31;;;;;;;7.35;4.50;;;;;;;4.29;75.88;102520.88;5009260;28;20578;-84
2024/01/23 09:21:56;;;;;;;7.90;4.60;;;;;;;4.60;75.19;102555.22;5027652;28;20100;-84
2024/01/23 09:24:22;;;;;;;6.82;4.38;;;;;;;4.51;75.72;102531.88;5009501;28;20108;-84
2024/01/23 09:26:48;;;;;;;7.40;4.43;;;;;;;4.03;75.65;102443.13;5011667;28;20033;-85
2024/01/23 09:29:13;;;;;;;6.95;4.47;;;;;;;4.18;75.15;102462.84;5030635;28;20509;-84
2024/01/23 09:31:46;;;;;;;6.88;4.35;;;;;;;4.60;75.33;102544.88;5028812;28;20021;-85
2024/01/23 09:34:15;;;;;;;7.85;4.75;;;;;;;4.60;75.24;102540.59;5028872;28;20478;-84
2024/01/23 09:36:41;;;;;;;6.68;4.22;;;;;;;4.46;75.01;102478.72;5029334;28;20100;-84
2024/01/23 09:39:13;;;;;;;7.82;4.60;;;;;;;4.60;74.84;102496.63;5027683;28;20683;-85
2024/01/23 09:41:44;;;;;;;6.72;4.60;;;;;;;4.86;74.56;102519.16;5030137;28;20520;-84
2024/01/23 09:44:11;;;;;;;7.10;4.60;;;;;;;4.85;74.52;102526.00;5048607;28;20163;-84
2024/01/23 09:46:37;;;;;;;6.72;4.43;;;;;;;4.87;74.46;102521.00;5036487;28;20031;-84
2024/01/23 09:49:03;;;;;;;7.05;4.28;;;;;;;4.64;74.59;102478.09;5056378;28;20137;-82
2024/01/23 09:51:28;;;;;;;6.20;4.32;;;;;;;4.88;74.82;102505.59;5073756;28;20051;-82
2024/01/23 09:53:54;;;;;;;7.38;4.65;;;;;;;4.58;75.11;102480.03;5056175;28;20059;-82
2024/01/23 09:56:21;;;;;;;7.88;4.90;;;;;;;4.55;75.20;102468.41;5056557;28;20401;-83
2024/01/23 09:58:47;;;;;;;7.47;4.47;;;;;;;4.63;75.46;102468.47;5074175;28;20028;-83
2024/01/23 10:01:12;;;;;;;5.68;3.75;;;;;;;4.53;74.89;102445.00;5055952;28;20039;-83
2024/01/23 10:03:48;;;;;;;7.22;4.55;;;;;;;4.49;75.62;102450.59;5073631;28;20033;-83
2024/01/23 10:07:00;;;;;;;7.65;4.30;;;;;;;4.79;75.17;102483.94;5045211;28;20493;-83
2024/01/23 10:10:29;;;;;;;9.05;4.88;;;;;;;4.70;75.10;102483.00;5055899;28;20050;-84
2024/01/23 10:13:29;;;;;;;7.13;4.47;;;;;;;4.75;75.21;102476.63;5035667;28;20043;-83
2024/01/23 10:16:18;;;;;;;6.38;4.25;;;;;;;4.47;74.73;102421.97;5055209;28;20425;-84
2024/01/23 10:19:10;;;;;;;7.63;4.07;;;;;;;4.67;75.73;102483.56;5054129;28;20040;-84
2024/01/23 10:21:54;;;;;;;8.27;4.95;;;;;;;4.45;74.80;102431.25;5073103;28;20500;-84
2024/01/23 10:25:00;;;;;;;7.57;4.28;;;;;;;4.31;75.37;102418.53;5055264;28;20021;-85
2024/01/23 10:27:44;;;;;;;5.55;4.00;;;;;;;4.24;75.06;102374.69;5061342;28;20038;-85
2024/01/23 10:31:00;;;;;;;6.75;4.32;;;;;;;4.68;75.50;102481.91;5054704;28;20154;-85
2024/01/23 10:33:26;;;;;;;7.15;4.30;;;;;;;4.42;75.86;102461.97;5054410;28;20036;-84
2024/01/23 10:39:20;;;;;;;6.95;4.35;;;;;;;4.45;75.82;102448.44;5072398;28;20047;-87
2024/01/23 10:42:14;;;;;;;8.50;4.88;;;;;;;4.53;75.79;102470.88;5050398;28;20394;-85
2024/01/23 10:45:16;;;;;;;7.63;4.53;;;;;;;4.56;76.22;102465.09;5036318;28;20056;-85
2024/01/23 10:47:47;;;;;;;6.57;4.20;;;;;;;3.91;75.97;102346.19;5034361;28;20062;-85
2024/01/23 10:51:00;;;;;;;7.10;4.20;;;;;;;4.61;76.22;102469.06;5054756;28;20067;-87
2024/01/23 10:53:50;;;;;;;6.43;4.10;;;;;;;4.64;75.85;102459.97;5072936;28;20035;-85
2024/01/23 10:59:46;;;;;;;7.93;4.40;;;;;;;4.53;76.39;102449.22;5059540;28;20047;-85
2024/01/23 11:02:28;;;;;;;7.03;4.20;;;;;;;4.47;76.24;102428.84;5038064;28;20123;-83
2024/01/23 11:04:53;;;;;;;6.85;4.28;;;;;;;4.57;76.00;102446.22;5047423;28;20173;-84
2024/01/23 11:07:28;;;;;;;5.25;3.80;;;;;;;4.59;76.12;102439.53;5052479;28;20492;-83
2024/01/23 11:10:32;;;;;;;5.63;4.03;;;;;;;4.46;75.97;102408.88;5053107;28;20032;-86
2024/01/23 11:13:24;;;;;;;6.35;4.13;;;;;;;4.31;76.34;102382.31;5042993;28;20102;-86
2024/01/23 11:15:49;;;;;;;6.20;3.92;;;;;;;4.57;76.11;102428.09;5063709;28;20086;-85
2024/01/23 11:18:28;;;;;;;5.97;4.00;;;;;;;4.58;76.14;102425.69;5051133;28;20032;-89
2024/01/23 11:21:03;;;;;;;5.88;3.80;;;;;;;4.59;76.08;102429.19;5042908;28;20093;-87
2024/01/23 11:23:31;;;;;;;5.30;3.72;;;;;;;4.50;76.15;102416.19;5068010;28;20037;-88
2024/01/23 11:26:19;;;;;;;6.28;4.07;;;;;;;4.62;75.98;102426.94;5037545;28;20032;-87
2024/01/23 11:28:47;;;;;;;6.32;4.15;;;;;;;4.52;75.75;102395.69;5070549;28;20078;-89
2024/01/23 11:31:19;;;;;;;6.53;4.20;;;;;;;4.39;76.29;102394.38;5034941;28;20021;-87
2024/01/23 11:33:47;;;;;;;6.55;4.05;;;;;;;4.40;76.58;102388.47;5033763;28;20029;-88
2024/01/23 11:36:24;;;;;;;6.65;4.28;;;;;;;4.64;76.32;102417.66;5033452;28;20034;-87
2024/01/23 11:38:51;;;;;;;6.28;3.83;;;;;;;4.41;76.24;102379.94;5049422;28;20040;-86
2024/01/23 11:41:27;;;;;;;6.55;4.10;;;;;;;4.72;75.96;102413.25;5050250;28;20032;-88
2024/01/23 11:44:15;;;;;;;5.20;3.78;;;;;;;4.51;75.95;102394.78;5025065;28;20476;-88
2024/01/23 11:46:42;;;;;;;6.40;4.15;;;;;;;4.35;76.43;102371.53;5013015;28;20095;-88
2024/01/23 11:49:09;;;;;;;6.68;3.90;;;;;;;4.49;75.95;102378.16;5008782;28;20026;-88
2024/01/23 11:51:43;;;;;;;6.13;3.97;;;;;;;3.98;75.93;102290.16;5012259;28;20032;-88
2024/01/23 11:54:12;;;;;;;7.10;4.10;;;;;;;4.30;75.88;102344.28;5027590;28;20055;-87
2024/01/23 11:56:39;;;;;;;5.50;3.78;;;;;;;4.70;76.42;102413.13;5014318;28;20037;-87
2024/01/23 11:59:13;;;;;;;6.88;4.32;;;;;;;3.85;75.88;102269.84;5018228;28;20032;-87